Aviation Digital Data Service (ADDS)

Output produced by METARs form (1206 UTC 26 March 2019)
found at http://www.aviationweather.gov/metar/data/
 
OBBI 261200Z 28005KT 240V330 7000 -RA NSC 25/19 Q1010 NOSIG
TAF OBBI 261100Z 2612/2718 04012KT 8000 NSC 
     PROB30 
     TEMPO 2612/2615 VRB20G35KT 3000 TSRA SCT030CB BKN080